sensor_id;sensor_type;location;lat;lon;timestamp;pressure;altitude;pressure_sealevel;temperature;humidity
6433;BME280;3249;42.690;23.260;2023-04-26T00:01:15;93322.22;;;9.28;100.00
6433;BME280;3249;42.690;23.260;2023-04-26T00:03:44;93329.69;;;9.30;100.00
6433;BME280;3249;42.690;23.260;2023-04-26T00:06:13;93295.19;;;9.09;100.00
6433;BME280;3249;42.690;23.260;2023-04-26T00:08:42;93317.91;;;9.17;100.00
6433;BME280;3249;42.690;23.260;2023-04-26T00:11:11;93306.56;;;9.13;100.00
6433;BME280;3249;42.690;23.260;2023-04-26T00:13:40;93295.50;;;8.85;100.00
6433;BME280;3249;42.690;23.260;2023-04-26T00:16:12;93299.63;;;8.86;100.00
6433;BME280;3249;42.690;23.260;2023-04-26T00:18:41;93299.38;;;8.59;100.00
6433;BME280;3249;42.690;23.260;2023-04-26T00:21:11;93294.09;;;8.77;100.00
6433;BME280;3249;42.690;23.260;2023-04-26T00:23:40;93293.31;;;8.77;100.00
6433;BME280;3249;42.690;23.260;2023-04-26T00:26:09;93297.13;;;8.74;100.00
6433;BME280;3249;42.690;23.260;2023-04-26T00:28:38;93296.28;;;8.57;100.00
6433;BME280;3249;42.690;23.260;2023-04-26T00:31:15;93272.50;;;7.99;100.00
6433;BME280;3249;42.690;23.260;2023-04-26T00:33:44;93284.78;;;7.97;100.00
6433;BME280;3249;42.690;23.260;2023-04-26T00:36:14;93285.00;;;7.84;100.00
6433;BME280;3249;42.690;23.260;2023-04-26T00:38:44;93276.75;;;7.82;100.00
6433;BME280;3249;42.690;23.260;2023-04-26T00:41:14;93284.66;;;7.92;100.00
6433;BME280;3249;42.690;23.260;2023-04-26T00:43:43;93288.00;;;7.70;100.00
6433;BME280;3249;42.690;23.260;2023-04-26T00:46:15;93280.75;;;7.55;100.00
6433;BME280;3249;42.690;23.260;2023-04-26T00:48:44;93285.34;;;7.65;100.00
6433;BME280;3249;42.690;23.260;2023-04-26T00:51:14;93287.13;;;7.76;100.00
6433;BME280;3249;42.690;23.260;2023-04-26T00:53:43;93288.09;;;7.63;100.00
6433;BME280;3249;42.690;23.260;2023-04-26T00:56:13;93291.47;;;7.87;100.00
6433;BME280;3249;42.690;23.260;2023-04-26T00:58:44;93281.66;;;7.72;100.00
6433;BME280;3249;42.690;23.260;2023-04-26T01:01:16;93283.88;;;7.80;100.00
6433;BME280;3249;42.690;23.260;2023-04-26T01:03:46;93280.09;;;7.71;100.00
6433;BME280;3249;42.690;23.260;2023-04-26T01:06:15;93288.78;;;7.70;100.00
6433;BME280;3249;42.690;23.260;2023-04-26T01:08:45;93292.66;;;7.84;100.00
6433;BME280;3249;42.690;23.260;2023-04-26T01:11:14;93296.78;;;7.74;100.00
6433;BME280;3249;42.690;23.260;2023-04-26T01:13:44;93282.56;;;7.66;100.00
6433;BME280;3249;42.690;23.260;2023-04-26T01:16:18;93290.09;;;7.50;100.00
6433;BME280;3249;42.690;23.260;2023-04-26T01:18:50;93284.88;;;7.45;100.00
6433;BME280;3249;42.690;23.260;2023-04-26T01:21:19;93274.63;;;7.56;100.00
6433;BME280;3249;42.690;23.260;2023-04-26T01:23:51;93274.19;;;7.48;100.00
6433;BME280;3249;42.690;23.260;2023-04-26T01:26:20;93276.28;;;7.28;100.00
6433;BME280;3249;42.690;23.260;2023-04-26T01:28:50;93273.72;;;7.51;100.00
6433;BME280;3249;42.690;23.260;2023-04-26T01:31:19;93275.63;;;7.55;100.00
6433;BME280;3249;42.690;23.260;2023-04-26T01:33:48;93283.31;;;7.55;100.00
6433;BME280;3249;42.690;23.260;2023-04-26T01:36:18;93283.78;;;7.64;100.00
6433;BME280;3249;42.690;23.260;2023-04-26T01:38:47;93285.00;;;7.61;100.00
6433;BME280;3249;42.690;23.260;2023-04-26T01:41:19;93285.66;;;7.68;100.00
6433;BME280;3249;42.690;23.260;2023-04-26T01:43:49;93290.44;;;7.65;100.00
6433;BME280;3249;42.690;23.260;2023-04-26T01:46:18;93292.13;;;7.59;100.00
6433;BME280;3249;42.690;23.260;2023-04-26T01:48:47;93287.22;;;7.46;100.00
6433;BME280;3249;42.690;23.260;2023-04-26T01:51:16;93282.47;;;7.09;100.00
6433;BME280;3249;42.690;23.260;2023-04-26T01:53:45;93280.91;;;7.08;100.00
6433;BME280;3249;42.690;23.260;2023-04-26T01:56:14;93271.69;;;6.77;100.00
6433;BME280;3249;42.690;23.260;2023-04-26T01:58:46;93276.88;;;7.00;100.00
6433;BME280;3249;42.690;23.260;2023-04-26T02:01:15;93278.38;;;7.19;100.00
6433;BME280;3249;42.690;23.260;2023-04-26T02:03:44;93269.50;;;7.33;100.00
6433;BME280;3249;42.690;23.260;2023-04-26T02:06:14;93266.38;;;7.31;100.00
6433;BME280;3249;42.690;23.260;2023-04-26T02:08:44;93265.41;;;7.44;100.00
6433;BME280;3249;42.690;23.260;2023-04-26T02:11:13;93268.72;;;7.44;100.00
6433;BME280;3249;42.690;23.260;2023-04-26T02:13:46;93259.34;;;7.27;100.00
6433;BME280;3249;42.690;23.260;2023-04-26T02:16:15;93264.56;;;7.20;100.00
6433;BME280;3249;42.690;23.260;2023-04-26T02:18:44;93260.69;;;7.18;100.00
6433;BME280;3249;42.690;23.260;2023-04-26T02:21:15;93255.78;;;7.16;100.00
6433;BME280;3249;42.690;23.260;2023-04-26T02:23:46;93253.91;;;7.12;100.00
6433;BME280;3249;42.690;23.260;2023-04-26T02:26:15;93254.69;;;7.24;100.00
6433;BME280;3249;42.690;23.260;2023-04-26T02:28:46;93256.81;;;7.38;100.00
6433;BME280;3249;42.690;23.260;2023-04-26T02:31:16;93254.38;;;7.43;100.00
6433;BME280;3249;42.690;23.260;2023-04-26T02:33:45;93252.59;;;7.44;100.00
6433;BME280;3249;42.690;23.260;2023-04-26T02:36:14;93259.63;;;7.60;100.00
6433;BME280;3249;42.690;23.260;2023-04-26T02:38:43;93270.63;;;7.60;100.00
6433;BME280;3249;42.690;23.260;2023-04-26T02:41:12;93267.28;;;7.48;100.00
6433;BME280;3249;42.690;23.260;2023-04-26T02:43:41;93268.59;;;7.51;100.00
6433;BME280;3249;42.690;23.260;2023-04-26T02:46:13;93262.38;;;7.47;100.00
6433;BME280;3249;42.690;23.260;2023-04-26T02:48:42;93260.38;;;7.49;100.00
6433;BME280;3249;42.690;23.260;2023-04-26T02:51:12;93248.13;;;7.39;100.00
6433;BME280;3249;42.690;23.260;2023-04-26T02:53:41;93256.06;;;7.49;100.00
6433;BME280;3249;42.690;23.260;2023-04-26T02:56:09;93245.34;;;7.29;100.00
6433;BME280;3249;42.690;23.260;2023-04-26T02:58:39;93240.69;;;7.26;100.00
6433;BME280;3249;42.690;23.260;2023-04-26T03:01:08;93241.53;;;7.20;100.00
6433;BME280;3249;42.690;23.260;2023-04-26T03:03:41;93247.34;;;7.27;100.00
6433;BME280;3249;42.690;23.260;2023-04-26T03:06:10;93248.78;;;7.35;100.00
6433;BME280;3249;42.690;23.260;2023-04-26T03:08:39;93244.69;;;7.34;100.00
6433;BME280;3249;42.690;23.260;2023-04-26T03:11:08;93249.25;;;7.32;100.00
6433;BME280;3249;42.690;23.260;2023-04-26T03:13:37;93244.25;;;7.25;100.00
6433;BME280;3249;42.690;23.260;2023-04-26T03:16:08;93248.25;;;7.21;100.00
6433;BME280;3249;42.690;23.260;2023-04-26T03:18:37;93249.69;;;7.40;100.00
6433;BME280;3249;42.690;23.260;2023-04-26T03:21:10;93253.16;;;7.57;100.00
6433;BME280;3249;42.690;23.260;2023-04-26T03:23:39;93248.56;;;7.36;100.00
6433;BME280;3249;42.690;23.260;2023-04-26T03:26:09;93246.00;;;7.36;100.00
6433;BME280;3249;42.690;23.260;2023-04-26T03:28:38;93243.00;;;7.28;100.00
6433;BME280;3249;42.690;23.260;2023-04-26T03:31:08;93251.34;;;7.35;100.00
6433;BME280;3249;42.690;23.260;2023-04-26T03:33:37;93250.81;;;7.56;100.00
6433;BME280;3249;42.690;23.260;2023-04-26T03:36:06;93251.16;;;7.59;100.00
6433;BME280;3249;42.690;23.260;2023-04-26T03:38:38;93251.69;;;7.73;100.00
6433;BME280;3249;42.690;23.260;2023-04-26T03:41:09;93258.03;;;7.82;100.00
6433;BME280;3249;42.690;23.260;2023-04-26T03:43:39;93266.50;;;7.82;100.00
6433;BME280;3249;42.690;23.260;2023-04-26T03:46:08;93265.72;;;8.05;100.00
6433;BME280;3249;42.690;23.260;2023-04-26T03:48:37;93270.97;;;8.21;100.00
6433;BME280;3249;42.690;23.260;2023-04-26T03:51:06;93266.78;;;8.20;100.00
6433;BME280;3249;42.690;23.260;2023-04-26T03:53:38;93278.25;;;8.52;100.00
6433;BME280;3249;42.690;23.260;2023-04-26T03:56:08;93281.28;;;8.77;100.00
6433;BME280;3249;42.690;23.260;2023-04-26T03:58:37;93279.94;;;8.35;100.00
6433;BME280;3249;42.690;23.260;2023-04-26T04:01:07;93275.47;;;8.42;100.00
6433;BME280;3249;42.690;23.260;2023-04-26T04:03:35;93283.63;;;8.79;100.00
6433;BME280;3249;42.690;23.260;2023-04-26T04:06:05;93274.09;;;9.07;100.00
6433;BME280;3249;42.690;23.260;2023-04-26T04:08:34;93293.72;;;8.85;100.00
6433;BME280;3249;42.690;23.260;2023-04-26T04:11:07;93288.28;;;8.42;100.00
6433;BME280;3249;42.690;23.260;2023-04-26T04:13:37;93296.41;;;8.51;100.00
6433;BME280;3249;42.690;23.260;2023-04-26T04:16:06;93291.34;;;8.67;100.00
6433;BME280;3249;42.690;23.260;2023-04-26T04:18:35;93298.03;;;8.68;100.00
6433;BME280;3249;42.690;23.260;2023-04-26T04:21:05;93298.81;;;8.69;100.00
6433;BME280;3249;42.690;23.260;2023-04-26T04:23:34;93292.75;;;8.35;100.00
6433;BME280;3249;42.690;23.260;2023-04-26T04:26:10;93296.41;;;8.51;100.00
6433;BME280;3249;42.690;23.260;2023-04-26T04:28:40;93295.75;;;8.32;100.00
6433;BME280;3249;42.690;23.260;2023-04-26T04:31:10;93299.75;;;8.51;100.00
6433;BME280;3249;42.690;23.260;2023-04-26T04:33:39;93298.78;;;8.80;100.00
6433;BME280;3249;42.690;23.260;2023-04-26T04:36:11;93296.25;;;8.69;100.00
6433;BME280;3249;42.690;23.260;2023-04-26T04:38:42;93303.16;;;8.68;100.00
6433;BME280;3249;42.690;23.260;2023-04-26T04:41:17;93305.69;;;9.08;100.00
6433;BME280;3249;42.690;23.260;2023-04-26T04:43:48;93302.84;;;9.37;100.00
6433;BME280;3249;42.690;23.260;2023-04-26T04:46:18;93307.69;;;9.50;100.00
6433;BME280;3249;42.690;23.260;2023-04-26T04:48:47;93303.97;;;9.58;100.00
6433;BME280;3249;42.690;23.260;2023-04-26T04:51:17;93318.28;;;9.71;100.00
6433;BME280;3249;42.690;23.260;2023-04-26T04:53:46;93311.09;;;9.56;100.00
6433;BME280;3249;42.690;23.260;2023-04-26T04:56:18;93310.28;;;9.84;100.00
6433;BME280;3249;42.690;23.260;2023-04-26T04:58:49;93310.78;;;10.02;100.00
6433;BME280;3249;42.690;23.260;2023-04-26T05:01:20;93299.41;;;10.15;100.00
6433;BME280;3249;42.690;23.260;2023-04-26T05:03:53;93307.09;;;10.31;100.00
6433;BME280;3249;42.690;23.260;2023-04-26T05:06:22;93308.84;;;10.47;100.00
6433;BME280;3249;42.690;23.260;2023-04-26T05:08:52;93319.41;;;10.51;100.00
6433;BME280;3249;42.690;23.260;2023-04-26T05:11:24;93314.22;;;10.46;100.00
6433;BME280;3249;42.690;23.260;2023-04-26T05:13:53;93314.94;;;10.41;100.00
6433;BME280;3249;42.690;23.260;2023-04-26T05:16:22;93299.56;;;10.25;100.00
6433;BME280;3249;42.690;23.260;2023-04-26T05:18:52;93317.56;;;10.25;100.00
6433;BME280;3249;42.690;23.260;2023-04-26T05:21:22;93311.19;;;10.11;100.00
6433;BME280;3249;42.690;23.260;2023-04-26T05:23:51;93309.88;;;10.08;100.00
6433;BME280;3249;42.690;23.260;2023-04-26T05:26:23;93310.88;;;10.24;100.00
6433;BME280;3249;42.690;23.260;2023-04-26T05:29:06;93315.84;;;10.52;100.00
6433;BME280;3249;42.690;23.260;2023-04-26T05:31:44;93320.81;;;10.80;100.00
6433;BME280;3249;42.690;23.260;2023-04-26T05:34:51;93324.03;;;10.92;100.00
6433;BME280;3249;42.690;23.260;2023-04-26T05:37:20;93325.34;;;11.16;100.00
6433;BME280;3249;42.690;23.260;2023-04-26T05:39:49;93334.56;;;11.38;100.00
6433;BME280;3249;42.690;23.260;2023-04-26T05:42:21;93335.59;;;11.11;100.00
6433;BME280;3249;42.690;23.260;2023-04-26T05:44:56;93336.75;;;11.51;100.00
6433;BME280;3249;42.690;23.260;2023-04-26T05:47:26;93342.63;;;11.68;100.00
6433;BME280;3249;42.690;23.260;2023-04-26T05:49:56;93341.41;;;11.81;100.00
6433;BME280;3249;42.690;23.260;2023-04-26T05:52:25;93351.31;;;11.94;100.00
6433;BME280;3249;42.690;23.260;2023-04-26T05:54:54;93352.66;;;12.01;100.00
6433;BME280;3249;42.690;23.260;2023-04-26T05:57:26;93346.03;;;11.52;100.00
6433;BME280;3249;42.690;23.260;2023-04-26T05:59:55;93348.22;;;11.60;100.00
6433;BME280;3249;42.690;23.260;2023-04-26T06:02:25;93343.28;;;11.59;100.00
6433;BME280;3249;42.690;23.260;2023-04-26T06:04:54;93339.91;;;11.32;100.00
6433;BME280;3249;42.690;23.260;2023-04-26T06:07:25;93352.81;;;11.32;100.00
6433;BME280;3249;42.690;23.260;2023-04-26T06:09:54;93351.88;;;11.69;100.00
6433;BME280;3249;42.690;23.260;2023-04-26T06:12:26;93356.44;;;11.89;100.00
6433;BME280;3249;42.690;23.260;2023-04-26T06:14:59;93357.66;;;11.55;100.00
6433;BME280;3249;42.690;23.260;2023-04-26T06:17:30;93353.22;;;11.24;100.00
6433;BME280;3249;42.690;23.260;2023-04-26T06:19:59;93360.41;;;11.48;100.00
6433;BME280;3249;42.690;23.260;2023-04-26T06:22:29;93371.03;;;11.52;100.00
6433;BME280;3249;42.690;23.260;2023-04-26T06:24:59;93368.44;;;11.52;100.00
6433;BME280;3249;42.690;23.260;2023-04-26T06:27:30;93367.56;;;11.63;100.00
6433;BME280;3249;42.690;23.260;2023-04-26T06:30:00;93367.56;;;11.94;100.00
6433;BME280;3249;42.690;23.260;2023-04-26T06:32:31;93367.44;;;12.11;100.00
6433;BME280;3249;42.690;23.260;2023-04-26T06:35:01;93372.72;;;11.94;100.00
6433;BME280;3249;42.690;23.260;2023-04-26T06:37:30;93367.28;;;11.91;100.00
6433;BME280;3249;42.690;23.260;2023-04-26T06:40:00;93366.28;;;11.97;100.00
6433;BME280;3249;42.690;23.260;2023-04-26T06:42:33;93364.97;;;12.26;100.00
6433;BME280;3249;42.690;23.260;2023-04-26T06:45:21;93364.19;;;12.25;100.00
6433;BME280;3249;42.690;23.260;2023-04-26T06:47:50;93369.34;;;11.14;100.00
6433;BME280;3249;42.690;23.260;2023-04-26T06:50:23;93369.97;;;11.00;100.00
6433;BME280;3249;42.690;23.260;2023-04-26T06:52:52;93365.53;;;10.74;100.00
6433;BME280;3249;42.690;23.260;2023-04-26T06:55:22;93371.53;;;11.27;100.00
6433;BME280;3249;42.690;23.260;2023-04-26T06:57:53;93380.09;;;11.33;100.00
6433;BME280;3249;42.690;23.260;2023-04-26T07:00:23;93376.50;;;11.34;100.00
6433;BME280;3249;42.690;23.260;2023-04-26T07:02:52;93374.47;;;11.36;100.00
6433;BME280;3249;42.690;23.260;2023-04-26T07:05:22;93371.09;;;11.09;100.00
6433;BME280;3249;42.690;23.260;2023-04-26T07:07:52;93363.59;;;11.29;100.00
6433;BME280;3249;42.690;23.260;2023-04-26T07:10:21;93382.47;;;11.61;100.00
6433;BME280;3249;42.690;23.260;2023-04-26T07:12:53;93381.06;;;11.75;100.00
6433;BME280;3249;42.690;23.260;2023-04-26T07:15:22;93382.31;;;11.99;100.00
6433;BME280;3249;42.690;23.260;2023-04-26T07:17:51;93386.88;;;11.92;100.00
6433;BME280;3249;42.690;23.260;2023-04-26T07:20:20;93382.03;;;11.69;100.00
6433;BME280;3249;42.690;23.260;2023-04-26T07:22:50;93388.25;;;11.46;100.00
6433;BME280;3249;42.690;23.260;2023-04-26T07:25:20;93384.41;;;11.49;100.00
6433;BME280;3249;42.690;23.260;2023-04-26T07:27:49;93373.56;;;11.47;100.00
6433;BME280;3249;42.690;23.260;2023-04-26T07:30:21;93389.50;;;11.44;100.00
6433;BME280;3249;42.690;23.260;2023-04-26T07:32:53;93387.59;;;11.34;100.00
6433;BME280;3249;42.690;23.260;2023-04-26T07:35:23;93394.41;;;11.19;100.00
6433;BME280;3249;42.690;23.260;2023-04-26T07:37:52;93395.72;;;11.00;100.00
6433;BME280;3249;42.690;23.260;2023-04-26T07:40:21;93387.34;;;10.88;100.00
6433;BME280;3249;42.690;23.260;2023-04-26T07:42:52;93391.66;;;11.04;100.00
6433;BME280;3249;42.690;23.260;2023-04-26T07:45:24;93385.09;;;10.96;100.00
6433;BME280;3249;42.690;23.260;2023-04-26T07:47:54;93405.69;;;11.18;97.31
6433;BME280;3249;42.690;23.260;2023-04-26T07:50:23;93407.81;;;11.21;99.10
6433;BME280;3249;42.690;23.260;2023-04-26T07:52:52;93406.66;;;11.33;100.00
6433;BME280;3249;42.690;23.260;2023-04-26T07:55:21;93407.41;;;11.34;97.22
6433;BME280;3249;42.690;23.260;2023-04-26T07:57:50;93410.44;;;11.52;96.89
6433;BME280;3249;42.690;23.260;2023-04-26T08:00:26;93408.06;;;11.67;92.66
6433;BME280;3249;42.690;23.260;2023-04-26T08:02:55;93381.00;;;11.70;93.44
6433;BME280;3249;42.690;23.260;2023-04-26T08:05:24;93417.63;;;11.98;88.22
6433;BME280;3249;42.690;23.260;2023-04-26T08:07:54;93420.38;;;11.87;91.57
6433;BME280;3249;42.690;23.260;2023-04-26T08:10:24;93419.75;;;12.06;89.70
6433;BME280;3249;42.690;23.260;2023-04-26T08:12:53;93419.31;;;12.14;90.80
6433;BME280;3249;42.690;23.260;2023-04-26T08:15:24;93413.72;;;12.27;89.12
6433;BME280;3249;42.690;23.260;2023-04-26T08:17:54;93415.44;;;12.17;86.91
6433;BME280;3249;42.690;23.260;2023-04-26T08:20:23;93387.22;;;12.00;89.84
6433;BME280;3249;42.690;23.260;2023-04-26T08:22:54;93426.91;;;12.26;91.28
6433;BME280;3249;42.690;23.260;2023-04-26T08:25:25;93412.03;;;12.38;91.29
6433;BME280;3249;42.690;23.260;2023-04-26T08:27:56;93386.34;;;12.21;88.13
6433;BME280;3249;42.690;23.260;2023-04-26T08:30:28;93400.31;;;12.25;91.47
6433;BME280;3249;42.690;23.260;2023-04-26T08:32:57;93414.63;;;12.43;88.25
6433;BME280;3249;42.690;23.260;2023-04-26T08:35:28;93420.19;;;12.66;85.61
6433;BME280;3249;42.690;23.260;2023-04-26T08:37:57;93416.09;;;12.70;86.68
6433;BME280;3249;42.690;23.260;2023-04-26T08:40:26;93414.03;;;12.72;83.77
6433;BME280;3249;42.690;23.260;2023-04-26T08:42:56;93420.44;;;12.65;84.83
6433;BME280;3249;42.690;23.260;2023-04-26T08:45:28;93411.69;;;12.66;81.55
6433;BME280;3249;42.690;23.260;2023-04-26T08:48:02;93415.25;;;12.60;82.11
6433;BME280;3249;42.690;23.260;2023-04-26T08:50:35;93419.53;;;12.44;84.29
6433;BME280;3249;42.690;23.260;2023-04-26T08:53:07;93412.50;;;12.76;83.91
6433;BME280;3249;42.690;23.260;2023-04-26T08:55:37;93415.84;;;12.77;82.67
6433;BME280;3249;42.690;23.260;2023-04-26T08:58:07;93416.28;;;13.00;79.63
6433;BME280;3249;42.690;23.260;2023-04-26T09:00:42;93418.00;;;12.90;79.22
6433;BME280;3249;42.690;23.260;2023-04-26T09:03:11;93414.91;;;12.93;78.63
6433;BME280;3249;42.690;23.260;2023-04-26T09:05:40;93419.53;;;12.86;79.74
6433;BME280;3249;42.690;23.260;2023-04-26T09:08:14;93420.63;;;12.95;79.35
6433;BME280;3249;42.690;23.260;2023-04-26T09:10:44;93424.28;;;12.99;76.86
6433;BME280;3249;42.690;23.260;2023-04-26T09:13:15;93418.69;;;12.75;77.86
6433;BME280;3249;42.690;23.260;2023-04-26T09:15:49;93427.00;;;12.82;75.94
6433;BME280;3249;42.690;23.260;2023-04-26T09:18:19;93428.34;;;12.90;76.48
6433;BME280;3249;42.690;23.260;2023-04-26T09:21:02;93416.72;;;12.46;81.72
6433;BME280;3249;42.690;23.260;2023-04-26T09:23:32;93433.41;;;12.75;77.71
6433;BME280;3249;42.690;23.260;2023-04-26T09:26:20;93419.63;;;13.01;76.64
6433;BME280;3249;42.690;23.260;2023-04-26T09:29:10;93430.97;;;13.51;76.62
6433;BME280;3249;42.690;23.260;2023-04-26T09:31:48;93441.00;;;13.48;69.30
6433;BME280;3249;42.690;23.260;2023-04-26T09:34:17;93441.50;;;13.35;70.17
6433;BME280;3249;42.690;23.260;2023-04-26T09:36:50;93434.22;;;13.27;70.90
6433;BME280;3249;42.690;23.260;2023-04-26T09:39:40;93423.56;;;13.13;74.30
6433;BME280;3249;42.690;23.260;2023-04-26T09:42:16;93424.16;;;13.30;73.27
6433;BME280;3249;42.690;23.260;2023-04-26T09:44:47;93423.66;;;13.33;74.23
6433;BME280;3249;42.690;23.260;2023-04-26T09:47:21;93427.63;;;13.61;68.57
6433;BME280;3249;42.690;23.260;2023-04-26T09:49:50;93414.16;;;13.54;66.12
6433;BME280;3249;42.690;23.260;2023-04-26T09:52:20;93420.59;;;13.46;65.28
6433;BME280;3249;42.690;23.260;2023-04-26T09:54:51;93421.94;;;13.59;67.46
6433;BME280;3249;42.690;23.260;2023-04-26T09:57:24;93414.84;;;13.34;67.88
6433;BME280;3249;42.690;23.260;2023-04-26T09:59:53;93418.16;;;13.20;66.11
6433;BME280;3249;42.690;23.260;2023-04-26T10:02:27;93419.34;;;13.59;68.50
6433;BME280;3249;42.690;23.260;2023-04-26T10:04:59;93392.75;;;13.83;62.59
6433;BME280;3249;42.690;23.260;2023-04-26T10:07:31;93419.16;;;14.06;56.66
6433;BME280;3249;42.690;23.260;2023-04-26T10:10:01;93423.56;;;14.10;56.08
6433;BME280;3249;42.690;23.260;2023-04-26T10:12:34;93418.38;;;14.00;54.75
6433;BME280;3249;42.690;23.260;2023-04-26T10:15:05;93422.53;;;14.06;53.48
6433;BME280;3249;42.690;23.260;2023-04-26T10:17:39;93424.09;;;13.97;53.92
6433;BME280;3249;42.690;23.260;2023-04-26T10:20:12;93401.28;;;13.69;55.68
6433;BME280;3249;42.690;23.260;2023-04-26T10:22:45;93406.47;;;13.94;56.89
6433;BME280;3249;42.690;23.260;2023-04-26T10:25:18;93406.44;;;13.69;57.00
6433;BME280;3249;42.690;23.260;2023-04-26T10:27:49;93413.19;;;13.85;58.54
6433;BME280;3249;42.690;23.260;2023-04-26T10:30:20;93416.75;;;13.64;59.61
6433;BME280;3249;42.690;23.260;2023-04-26T10:33:23;93416.28;;;13.82;53.13
6433;BME280;3249;42.690;23.260;2023-04-26T10:36:02;93409.50;;;13.56;55.06
6433;BME280;3249;42.690;23.260;2023-04-26T10:38:32;93415.03;;;14.00;52.50
6433;BME280;3249;42.690;23.260;2023-04-26T10:41:29;93415.28;;;13.93;50.62
6433;BME280;3249;42.690;23.260;2023-04-26T10:47:06;93403.91;;;13.89;51.28
6433;BME280;3249;42.690;23.260;2023-04-26T10:49:53;93415.25;;;13.78;52.41
6433;BME280;3249;42.690;23.260;2023-04-26T10:52:33;93406.97;;;13.81;49.99
6433;BME280;3249;42.690;23.260;2023-04-26T10:55:03;93413.44;;;13.88;49.09
6433;BME280;3249;42.690;23.260;2023-04-26T10:57:49;93406.69;;;13.77;48.61
6433;BME280;3249;42.690;23.260;2023-04-26T11:00:29;93411.63;;;13.74;50.96
6433;BME280;3249;42.690;23.260;2023-04-26T11:03:05;93404.41;;;13.81;50.87
6433;BME280;3249;42.690;23.260;2023-04-26T11:05:47;93400.44;;;13.43;55.32
6433;BME280;3249;42.690;23.260;2023-04-26T11:08:17;93404.88;;;13.68;53.42
6433;BME280;3249;42.690;23.260;2023-04-26T11:13:40;93399.94;;;12.90;56.89
6433;BME280;3249;42.690;23.260;2023-04-26T11:16:16;93366.00;;;13.28;52.24
6433;BME280;3249;42.690;23.260;2023-04-26T11:18:46;93401.81;;;13.86;49.84
6433;BME280;3249;42.690;23.260;2023-04-26T11:21:20;93393.03;;;14.02;49.28
6433;BME280;3249;42.690;23.260;2023-04-26T11:23:52;93374.13;;;14.07;49.53
6433;BME280;3249;42.690;23.260;2023-04-26T11:26:31;93368.13;;;13.46;50.00
6433;BME280;3249;42.690;23.260;2023-04-26T11:29:01;93403.53;;;13.40;52.36
6433;BME280;3249;42.690;23.260;2023-04-26T11:31:34;93411.41;;;13.96;48.16
6433;BME280;3249;42.690;23.260;2023-04-26T11:34:05;93405.44;;;13.95;47.27
6433;BME280;3249;42.690;23.260;2023-04-26T11:36:38;93413.22;;;14.20;46.52
6433;BME280;3249;42.690;23.260;2023-04-26T11:39:07;93405.69;;;14.14;47.61
6433;BME280;3249;42.690;23.260;2023-04-26T11:41:37;93394.28;;;13.64;52.19
6433;BME280;3249;42.690;23.260;2023-04-26T11:44:10;93393.03;;;13.97;49.12
6433;BME280;3249;42.690;23.260;2023-04-26T11:46:40;93412.72;;;14.23;46.56
6433;BME280;3249;42.690;23.260;2023-04-26T11:49:10;93408.53;;;14.72;44.19
6433;BME280;3249;42.690;23.260;2023-04-26T11:51:43;93422.00;;;14.79;42.56
6433;BME280;3249;42.690;23.260;2023-04-26T11:54:25;93405.72;;;14.59;42.43
6433;BME280;3249;42.690;23.260;2023-04-26T11:56:56;93406.47;;;14.59;43.33
6433;BME280;3249;42.690;23.260;2023-04-26T11:59:26;93398.97;;;14.58;44.70
6433;BME280;3249;42.690;23.260;2023-04-26T12:01:57;93407.53;;;14.48;44.05
6433;BME280;3249;42.690;23.260;2023-04-26T12:04:27;93404.94;;;14.58;45.35
6433;BME280;3249;42.690;23.260;2023-04-26T12:07:02;93409.88;;;14.55;44.47
6433;BME280;3249;42.690;23.260;2023-04-26T12:09:32;93399.00;;;14.48;46.00
6433;BME280;3249;42.690;23.260;2023-04-26T12:12:03;93400.78;;;14.02;45.33
6433;BME280;3249;42.690;23.260;2023-04-26T12:14:33;93396.69;;;14.21;45.46
6433;BME280;3249;42.690;23.260;2023-04-26T12:17:05;93395.63;;;14.42;45.30
6433;BME280;3249;42.690;23.260;2023-04-26T12:19:35;93378.03;;;14.34;44.38
6433;BME280;3249;42.690;23.260;2023-04-26T12:22:07;93400.22;;;14.85;43.28
6433;BME280;3249;42.690;23.260;2023-04-26T12:24:36;93400.50;;;14.79;43.06
6433;BME280;3249;42.690;23.260;2023-04-26T12:27:19;93392.22;;;14.77;44.51
6433;BME280;3249;42.690;23.260;2023-04-26T12:29:48;93397.16;;;14.58;44.52
6433;BME280;3249;42.690;23.260;2023-04-26T12:32:17;93386.28;;;13.96;45.53
6433;BME280;3249;42.690;23.260;2023-04-26T12:34:46;93387.84;;;14.07;46.43
6433;BME280;3249;42.690;23.260;2023-04-26T12:37:19;93392.50;;;14.10;47.45
6433;BME280;3249;42.690;23.260;2023-04-26T12:39:48;93394.06;;;14.11;48.11
6433;BME280;3249;42.690;23.260;2023-04-26T12:42:17;93398.47;;;14.16;47.63
6433;BME280;3249;42.690;23.260;2023-04-26T12:44:47;93397.97;;;14.34;47.62
6433;BME280;3249;42.690;23.260;2023-04-26T12:47:18;93394.06;;;14.36;47.83
6433;BME280;3249;42.690;23.260;2023-04-26T12:49:47;93381.41;;;14.30;47.06
6433;BME280;3249;42.690;23.260;2023-04-26T12:52:19;93387.31;;;14.20;47.07
6433;BME280;3249;42.690;23.260;2023-04-26T12:54:48;93385.25;;;14.07;46.48
6433;BME280;3249;42.690;23.260;2023-04-26T12:57:18;93388.00;;;13.45;47.73
6433;BME280;3249;42.690;23.260;2023-04-26T12:59:47;93390.66;;;13.70;48.49
6433;BME280;3249;42.690;23.260;2023-04-26T13:02:19;93383.94;;;13.74;50.88
6433;BME280;3249;42.690;23.260;2023-04-26T13:04:49;93391.69;;;13.74;51.91
6433;BME280;3249;42.690;23.260;2023-04-26T13:07:21;93397.94;;;13.93;51.58
6433;BME280;3249;42.690;23.260;2023-04-26T13:09:53;93396.34;;;13.82;50.00
6433;BME280;3249;42.690;23.260;2023-04-26T13:12:23;93369.72;;;13.82;52.88
6433;BME280;3249;42.690;23.260;2023-04-26T13:14:52;93400.00;;;14.02;50.62
6433;BME280;3249;42.690;23.260;2023-04-26T13:17:23;93399.47;;;13.84;50.19
6433;BME280;3249;42.690;23.260;2023-04-26T13:19:52;93409.63;;;14.21;49.17
6433;BME280;3249;42.690;23.260;2023-04-26T13:22:24;93414.28;;;14.24;47.53
6433;BME280;3249;42.690;23.260;2023-04-26T13:24:53;93386.03;;;14.02;45.08
6433;BME280;3249;42.690;23.260;2023-04-26T13:27:22;93423.53;;;13.90;45.33
6433;BME280;3249;42.690;23.260;2023-04-26T13:29:51;93419.63;;;13.67;46.43
6433;BME280;3249;42.690;23.260;2023-04-26T13:32:20;93422.97;;;13.53;49.74
6433;BME280;3249;42.690;23.260;2023-04-26T13:34:49;93425.91;;;13.15;55.17